createdAt,value
2023-02-17T00:01:14.807Z,19.50
2023-02-17T00:03:41.955Z,18.95
2023-02-17T00:06:11.054Z,22.98
2023-02-17T00:08:38.347Z,18.83
2023-02-17T00:11:05.656Z,19.63
2023-02-17T00:13:32.937Z,19.55
2023-02-17T00:16:00.210Z,20.13
2023-02-17T00:18:27.151Z,19.40
2023-02-17T00:20:54.145Z,19.88
2023-02-17T00:23:20.965Z,16.40
2023-02-17T00:25:47.981Z,17.65
2023-02-17T00:28:15.157Z,20.02
2023-02-17T00:30:42.234Z,17.20
2023-02-17T00:33:09.217Z,21.17
2023-02-17T00:35:39.933Z,19.90
2023-02-17T00:38:08.454Z,17.77
2023-02-17T00:40:35.398Z,17.77
2023-02-17T00:43:02.627Z,20.08
2023-02-17T00:45:29.640Z,17.65
2023-02-17T00:47:56.532Z,19.25
2023-02-17T00:50:23.522Z,19.60
2023-02-17T00:52:50.510Z,20.88
2023-02-17T00:55:17.641Z,22.15
2023-02-17T00:57:44.569Z,18.50
2023-02-17T01:00:12.211Z,19.30
2023-02-17T01:02:39.257Z,19.88
2023-02-17T01:05:06.966Z,21.20
2023-02-17T01:07:33.922Z,22.98
2023-02-17T01:10:01.011Z,20.00
2023-02-17T01:12:28.136Z,19.88
2023-02-17T01:14:55.106Z,20.40
2023-02-17T01:17:23.952Z,18.80
2023-02-17T01:19:52.193Z,21.42
2023-02-17T01:22:19.266Z,19.98
2023-02-17T01:24:46.209Z,21.05
2023-02-17T01:27:13.084Z,19.20
2023-02-17T01:29:40.154Z,17.27
2023-02-17T01:32:07.166Z,19.42
2023-02-17T01:34:34.105Z,22.50
2023-02-17T01:37:01.157Z,19.35
2023-02-17T01:39:28.206Z,20.08
2023-02-17T01:41:55.280Z,20.80
2023-02-17T01:44:24.595Z,18.80
2023-02-17T01:46:54.477Z,21.50
2023-02-17T01:49:36.835Z,20.85
2023-02-17T01:52:06.680Z,20.58
2023-02-17T01:54:58.130Z,19.55
2023-02-17T01:57:32.834Z,21.30
2023-02-17T02:00:00.501Z,18.60
2023-02-17T02:02:31.055Z,20.60
2023-02-17T02:04:58.759Z,21.52
2023-02-17T02:07:39.051Z,21.38
2023-02-17T02:10:06.980Z,22.20
2023-02-17T02:12:38.016Z,20.85
2023-02-17T02:15:10.138Z,20.83
2023-02-17T02:18:15.296Z,20.40
2023-02-17T02:21:04.479Z,21.92
2023-02-17T02:23:37.318Z,18.73
2023-02-17T02:26:28.833Z,19.95
2023-02-17T02:29:04.737Z,21.95
2023-02-17T02:31:48.672Z,20.08
2023-02-17T02:34:16.944Z,18.70
2023-02-17T02:36:49.765Z,18.20
2023-02-17T02:39:21.649Z,19.60
2023-02-17T02:42:11.903Z,26.48
2023-02-17T02:44:38.885Z,18.80
2023-02-17T02:47:27.636Z,19.13
2023-02-17T02:49:55.271Z,20.52
2023-02-17T02:52:34.524Z,17.50
2023-02-17T02:55:45.126Z,18.65
2023-02-17T02:58:27.241Z,19.63
2023-02-17T03:01:02.424Z,18.15
2023-02-17T03:04:07.493Z,16.23
2023-02-17T03:06:41.453Z,16.92
2023-02-17T03:09:24.735Z,19.95
2023-02-17T03:11:53.101Z,19.52
2023-02-17T03:14:22.349Z,18.52
2023-02-17T03:16:50.757Z,18.35
2023-02-17T03:19:20.392Z,18.50
2023-02-17T03:22:17.353Z,18.63
2023-02-17T03:24:47.689Z,16.10
2023-02-17T03:27:14.920Z,18.23
2023-02-17T03:29:41.902Z,16.95
2023-02-17T03:32:09.166Z,16.73
2023-02-17T03:34:36.593Z,16.77
2023-02-17T03:37:03.771Z,17.42
2023-02-17T03:39:31.654Z,16.98
2023-02-17T03:41:58.674Z,13.80
2023-02-17T03:44:25.665Z,16.67
2023-02-17T03:46:52.806Z,15.30
2023-02-17T03:49:20.080Z,16.17
2023-02-17T03:51:47.418Z,18.35
2023-02-17T03:54:14.381Z,14.98
2023-02-17T03:56:41.377Z,18.98
2023-02-17T03:59:08.416Z,17.67
2023-02-17T04:01:35.553Z,16.38
2023-02-17T04:04:02.763Z,16.13
2023-02-17T04:06:29.777Z,16.38
2023-02-17T04:08:56.724Z,15.77
2023-02-17T04:11:23.797Z,18.92
2023-02-17T04:13:50.989Z,18.40
2023-02-17T04:16:18.234Z,18.75
2023-02-17T04:18:45.213Z,19.27
2023-02-17T04:21:12.661Z,19.50
2023-02-17T04:23:39.743Z,18.35
2023-02-17T04:26:08.512Z,17.80
2023-02-17T04:28:39.008Z,20.35
2023-02-17T04:31:06.269Z,17.98
2023-02-17T04:33:34.095Z,17.15
2023-02-17T04:36:01.650Z,17.13
2023-02-17T04:38:30.220Z,17.98
2023-02-17T04:40:58.646Z,21.02
2023-02-17T04:43:27.707Z,19.02
2023-02-17T04:45:57.863Z,19.30
2023-02-17T04:48:26.180Z,15.20
2023-02-17T04:50:53.715Z,16.92
2023-02-17T04:53:20.992Z,20.55
2023-02-17T04:55:53.035Z,21.95
2023-02-17T04:58:20.879Z,21.33
2023-02-17T05:00:49.360Z,20.95
2023-02-17T05:03:17.128Z,17.55
2023-02-17T05:05:44.558Z,18.60
2023-02-17T05:08:11.579Z,20.60
2023-02-17T05:10:38.630Z,19.33
2023-02-17T05:13:05.547Z,19.27
2023-02-17T05:15:34.723Z,18.58
2023-02-17T05:18:02.406Z,16.35
2023-02-17T05:20:29.748Z,18.10
2023-02-17T05:22:56.721Z,17.55
2023-02-17T05:25:23.670Z,17.42
2023-02-17T05:27:50.628Z,16.70
2023-02-17T05:30:20.507Z,16.25
2023-02-17T05:32:47.578Z,17.88
2023-02-17T05:35:14.519Z,16.48
2023-02-17T05:37:41.675Z,17.52
2023-02-17T05:40:09.329Z,15.73
2023-02-17T05:42:36.275Z,18.58
2023-02-17T05:45:04.245Z,17.02
2023-02-17T05:47:31.237Z,15.95
2023-02-17T05:49:58.132Z,17.75
2023-02-17T05:52:25.153Z,18.13
2023-02-17T05:54:52.297Z,15.88
2023-02-17T05:57:19.417Z,19.42
2023-02-17T05:59:46.292Z,15.80
2023-02-17T06:02:13.326Z,16.98
2023-02-17T06:04:40.353Z,16.50
2023-02-17T06:07:07.533Z,15.27
2023-02-17T06:09:34.572Z,16.67
2023-02-17T06:12:01.738Z,14.88
2023-02-17T06:14:28.835Z,19.30
2023-02-17T06:16:57.011Z,14.48
2023-02-17T06:19:24.439Z,15.50
2023-02-17T06:21:51.619Z,12.88
2023-02-17T06:24:18.703Z,14.25
2023-02-17T06:26:45.849Z,14.13
2023-02-17T06:29:12.872Z,15.40
2023-02-17T06:31:40.055Z,13.48
2023-02-17T06:34:07.496Z,13.85
2023-02-17T06:36:34.732Z,12.63
2023-02-17T06:39:01.850Z,14.02
2023-02-17T06:41:29.007Z,13.48
2023-02-17T06:43:56.146Z,14.02
2023-02-17T06:46:23.187Z,14.02
2023-02-17T06:48:50.267Z,12.82
2023-02-17T06:51:17.463Z,15.05
2023-02-17T06:53:44.466Z,15.05
2023-02-17T06:56:11.539Z,16.13
2023-02-17T06:58:38.744Z,12.25
2023-02-17T07:01:06.064Z,14.77
2023-02-17T07:03:33.080Z,14.07
2023-02-17T07:06:00.630Z,11.70
2023-02-17T07:08:27.740Z,12.43
2023-02-17T07:10:54.916Z,13.05
2023-02-17T07:13:21.962Z,13.73
2023-02-17T07:15:49.080Z,13.68
2023-02-17T07:18:16.028Z,11.70
2023-02-17T07:20:43.175Z,13.40
2023-02-17T07:23:10.434Z,14.90
2023-02-17T07:25:37.465Z,15.52
2023-02-17T07:28:04.798Z,12.30
2023-02-17T07:30:31.982Z,11.68
2023-02-17T07:32:58.994Z,12.90
2023-02-17T07:35:26.203Z,13.15
2023-02-17T07:37:53.194Z,10.93
2023-02-17T07:40:20.286Z,10.80
2023-02-17T07:42:48.452Z,13.15
2023-02-17T07:45:15.801Z,10.73
2023-02-17T07:47:43.036Z,12.52
2023-02-17T07:50:11.295Z,11.20
2023-02-17T07:52:38.294Z,11.10
2023-02-17T07:55:05.662Z,10.75
2023-02-17T07:57:32.875Z,11.48
2023-02-17T07:59:59.784Z,11.68
2023-02-17T08:02:27.036Z,10.30
2023-02-17T08:04:54.124Z,9.90
2023-02-17T08:07:21.112Z,11.10
2023-02-17T08:10:06.573Z,11.52
2023-02-17T08:12:52.196Z,11.53
2023-02-17T08:15:19.370Z,11.55
2023-02-17T08:17:50.961Z,12.68
2023-02-17T08:20:18.422Z,11.52
2023-02-17T08:22:45.499Z,12.73
2023-02-17T08:25:12.533Z,10.32
2023-02-17T08:27:39.614Z,11.02
2023-02-17T08:30:07.483Z,11.63
2023-02-17T08:32:34.541Z,11.18
2023-02-17T08:35:01.952Z,9.77
2023-02-17T08:37:30.356Z,12.55
2023-02-17T08:39:59.104Z,11.55
2023-02-17T08:42:27.493Z,12.15
2023-02-17T08:44:55.243Z,15.57
2023-02-17T08:47:22.352Z,10.10
2023-02-17T08:49:49.585Z,12.60
2023-02-17T08:52:16.640Z,10.60
2023-02-17T08:54:43.917Z,13.15
2023-02-17T08:57:11.015Z,9.82
2023-02-17T08:59:38.230Z,11.90
2023-02-17T09:02:05.490Z,12.80
2023-02-17T09:04:32.718Z,11.15
2023-02-17T09:06:59.959Z,13.40
2023-02-17T09:09:27.538Z,9.35
2023-02-17T09:11:56.688Z,11.18
2023-02-17T09:14:24.530Z,11.98
2023-02-17T09:16:55.913Z,13.00
2023-02-17T09:19:23.394Z,8.45
2023-02-17T09:21:50.560Z,10.90
2023-02-17T09:24:18.255Z,9.60
2023-02-17T09:26:45.666Z,9.25
2023-02-17T09:29:12.875Z,8.98
2023-02-17T09:31:40.493Z,8.25
2023-02-17T09:34:07.625Z,7.93
2023-02-17T09:36:39.589Z,8.07
2023-02-17T09:39:06.998Z,8.38
2023-02-17T09:41:42.951Z,11.88
2023-02-17T09:44:28.584Z,8.52
2023-02-17T09:47:02.436Z,6.63
2023-02-17T09:49:44.815Z,7.50
2023-02-17T09:52:24.126Z,6.55
2023-02-17T09:54:54.340Z,7.40
2023-02-17T09:57:27.171Z,6.43
2023-02-17T10:00:12.904Z,6.45
2023-02-17T10:03:13.039Z,6.75
2023-02-17T10:05:48.175Z,5.28
2023-02-17T10:08:24.124Z,8.50
2023-02-17T10:11:08.381Z,6.30
2023-02-17T10:13:37.682Z,7.38
2023-02-17T10:16:12.018Z,8.63
2023-02-17T10:18:59.192Z,6.85
2023-02-17T10:21:31.259Z,7.32
2023-02-17T10:23:58.584Z,6.95
2023-02-17T10:27:04.437Z,7.45
2023-02-17T10:29:50.747Z,5.32
2023-02-17T10:35:17.179Z,6.88
2023-02-17T10:37:50.412Z,5.95
2023-02-17T10:40:23.853Z,5.30
2023-02-17T10:42:55.160Z,4.70
2023-02-17T10:45:31.513Z,5.40
2023-02-17T10:48:06.792Z,5.40
2023-02-17T10:50:34.861Z,5.15
2023-02-17T10:53:01.920Z,5.15
2023-02-17T10:55:53.226Z,6.43
2023-02-17T10:58:43.274Z,6.60
2023-02-17T11:01:10.803Z,6.07
2023-02-17T11:03:41.000Z,5.72
2023-02-17T11:06:22.584Z,5.65
2023-02-17T11:08:51.754Z,5.18
2023-02-17T11:11:26.662Z,5.20
2023-02-17T11:14:03.642Z,4.90
2023-02-17T11:16:37.793Z,7.15
2023-02-17T11:19:07.214Z,5.65
2023-02-17T11:21:34.389Z,6.38
2023-02-17T11:24:04.842Z,5.78
2023-02-17T11:26:35.151Z,7.82
2023-02-17T11:29:21.199Z,8.43
2023-02-17T11:32:02.293Z,6.75
2023-02-17T11:34:33.194Z,8.60
2023-02-17T11:37:24.555Z,10.13
2023-02-17T11:39:56.309Z,10.25
2023-02-17T11:42:23.438Z,6.80
2023-02-17T11:44:51.052Z,5.60
2023-02-17T11:47:41.691Z,6.03
2023-02-17T11:50:40.354Z,6.10
2023-02-17T11:53:42.991Z,6.32
2023-02-17T11:56:10.161Z,6.18
2023-02-17T11:59:02.365Z,5.45
2023-02-17T12:02:03.624Z,5.22
2023-02-17T12:04:48.709Z,6.55
2023-02-17T12:07:52.638Z,6.00
2023-02-17T12:10:33.287Z,4.60
2023-02-17T12:13:00.395Z,6.13
2023-02-17T12:15:31.645Z,5.03
2023-02-17T12:18:20.253Z,6.55
2023-02-17T12:21:02.353Z,5.45
2023-02-17T12:23:53.958Z,5.22
2023-02-17T12:26:28.810Z,5.05
2023-02-17T12:29:11.746Z,4.82
2023-02-17T12:32:03.885Z,5.68
2023-02-17T12:34:41.464Z,4.70
2023-02-17T12:37:19.342Z,3.97
2023-02-17T12:39:52.123Z,4.72
2023-02-17T12:43:01.022Z,6.55
2023-02-17T12:45:42.809Z,4.10
2023-02-17T12:48:32.847Z,6.15
2023-02-17T12:51:39.842Z,4.57
2023-02-17T12:54:34.428Z,4.57
2023-02-17T12:57:10.864Z,4.60
2023-02-17T12:59:46.692Z,3.50
2023-02-17T13:04:49.215Z,3.58
2023-02-17T13:07:21.224Z,4.38
2023-02-17T13:09:50.223Z,3.70
2023-02-17T13:12:23.486Z,4.53
2023-02-17T13:15:02.861Z,4.47
2023-02-17T13:17:34.427Z,4.82
2023-02-17T13:20:07.857Z,4.63
2023-02-17T13:22:35.235Z,4.28
2023-02-17T13:25:02.653Z,3.67
2023-02-17T13:27:32.579Z,4.55
2023-02-17T13:30:11.863Z,5.28
2023-02-17T13:32:39.189Z,3.65
2023-02-17T13:35:29.142Z,3.75
2023-02-17T13:37:56.195Z,6.63
2023-02-17T13:40:24.193Z,4.75
2023-02-17T13:42:54.351Z,3.72
2023-02-17T13:45:34.770Z,4.95
2023-02-17T13:48:49.440Z,3.83
2023-02-17T13:51:28.776Z,3.53
2023-02-17T13:53:56.109Z,2.78
2023-02-17T13:56:29.957Z,3.45
2023-02-17T13:59:17.644Z,2.85
2023-02-17T14:01:46.435Z,3.03
2023-02-17T14:04:21.831Z,3.63
2023-02-17T14:06:50.077Z,3.75
2023-02-17T14:09:25.415Z,3.17
2023-02-17T14:11:54.084Z,4.35
2023-02-17T14:14:24.086Z,2.92
2023-02-17T14:17:06.875Z,2.78
2023-02-17T14:19:48.369Z,2.92
2023-02-17T14:22:28.942Z,3.13
2023-02-17T14:25:03.495Z,3.40
2023-02-17T14:27:45.215Z,3.40
2023-02-17T14:30:28.840Z,3.85
2023-02-17T14:33:08.473Z,3.85
2023-02-17T14:35:36.251Z,2.67
2023-02-17T14:38:09.982Z,4.18
2023-02-17T14:40:39.093Z,5.25
2023-02-17T14:43:07.139Z,3.30
2023-02-17T14:45:34.193Z,2.75
2023-02-17T14:48:01.422Z,2.63
2023-02-17T14:50:28.551Z,2.88
2023-02-17T14:52:56.180Z,3.20
2023-02-17T14:55:34.133Z,2.97
2023-02-17T14:58:01.532Z,2.45
2023-02-17T15:00:28.969Z,2.70
2023-02-17T15:02:56.075Z,3.80
2023-02-17T15:05:24.157Z,4.10
2023-02-17T15:07:51.445Z,1.95
2023-02-17T15:10:24.143Z,2.70
2023-02-17T15:12:51.664Z,2.25
2023-02-17T15:15:19.019Z,2.13
2023-02-17T15:17:46.371Z,2.90
2023-02-17T15:20:15.477Z,2.88
2023-02-17T15:22:44.591Z,2.08
2023-02-17T15:25:17.988Z,3.03
2023-02-17T15:27:46.555Z,2.10
2023-02-17T15:30:19.447Z,2.25
2023-02-17T15:32:47.577Z,2.83
2023-02-17T15:35:18.904Z,3.15
2023-02-17T15:37:46.212Z,4.45
2023-02-17T15:40:17.440Z,4.28
2023-02-17T15:42:46.650Z,4.13
2023-02-17T15:45:19.080Z,2.47
2023-02-17T15:47:58.232Z,2.50
2023-02-17T15:50:25.339Z,2.85
2023-02-17T15:52:53.527Z,3.05
2023-02-17T15:55:23.611Z,1.90
2023-02-17T15:57:54.795Z,2.95
2023-02-17T16:00:31.373Z,2.88
2023-02-17T16:02:59.502Z,3.25
2023-02-17T16:05:28.614Z,4.93
2023-02-17T16:07:56.556Z,4.75
2023-02-17T16:10:29.844Z,6.22
2023-02-17T16:12:58.895Z,3.60
2023-02-17T16:15:27.620Z,2.47
2023-02-17T16:17:55.833Z,2.60
2023-02-17T16:20:34.856Z,3.83
2023-02-17T16:23:03.243Z,2.00
2023-02-17T16:25:30.561Z,2.58
2023-02-17T16:27:58.008Z,3.63
2023-02-17T16:30:34.173Z,4.38
2023-02-17T16:33:02.176Z,2.50
2023-02-17T16:35:31.875Z,2.00
2023-02-17T16:38:07.054Z,2.53
2023-02-17T16:40:36.608Z,1.80
2023-02-17T16:43:04.029Z,2.92
2023-02-17T16:45:32.948Z,4.18
2023-02-17T16:48:01.438Z,1.58
2023-02-17T16:50:35.653Z,2.45
2023-02-17T16:53:06.113Z,1.80
2023-02-17T16:55:35.859Z,2.05
2023-02-17T16:58:04.049Z,2.65
2023-02-17T17:00:33.464Z,2.22
2023-02-17T17:03:00.422Z,2.80
2023-02-17T17:05:29.161Z,2.03
2023-02-17T17:07:57.131Z,2.10
2023-02-17T17:10:27.519Z,2.55
2023-02-17T17:12:55.105Z,2.05
2023-02-17T17:15:22.594Z,3.40
2023-02-17T17:18:00.218Z,2.13
2023-02-17T17:20:32.242Z,3.58
2023-02-17T17:23:00.919Z,7.03
2023-02-17T17:25:29.221Z,10.10
2023-02-17T17:27:57.321Z,11.25
2023-02-17T17:30:27.497Z,4.35
2023-02-17T17:32:54.792Z,4.28
2023-02-17T17:35:22.202Z,3.05
2023-02-17T17:37:49.392Z,2.00
2023-02-17T17:40:22.613Z,2.85
2023-02-17T17:42:49.799Z,1.65
2023-02-17T17:45:18.138Z,3.20
2023-02-17T17:47:45.402Z,2.22
2023-02-17T17:50:23.050Z,1.95
2023-02-17T17:52:49.983Z,2.33
2023-02-17T17:55:16.993Z,2.80
2023-02-17T17:57:44.155Z,3.08
2023-02-17T18:00:14.389Z,3.38
2023-02-17T18:02:44.645Z,4.88
2023-02-17T18:05:13.121Z,2.60
2023-02-17T18:07:42.736Z,5.40
2023-02-17T18:10:12.208Z,2.75
2023-02-17T18:12:40.717Z,1.88
2023-02-17T18:15:08.441Z,2.28
2023-02-17T18:17:38.875Z,2.53
2023-02-17T18:20:10.526Z,2.55
2023-02-17T18:22:39.155Z,2.42
2023-02-17T18:25:07.188Z,2.40
2023-02-17T18:27:46.497Z,2.70
2023-02-17T18:30:19.691Z,3.13
2023-02-17T18:32:48.149Z,2.65
2023-02-17T18:35:16.093Z,4.60
2023-02-17T18:37:43.670Z,2.78
2023-02-17T18:40:12.695Z,2.88
2023-02-17T18:42:41.619Z,3.20
2023-02-17T18:45:09.252Z,2.67
2023-02-17T18:47:36.438Z,2.97
2023-02-17T18:50:05.105Z,2.22
2023-02-17T18:52:32.134Z,3.80
2023-02-17T18:54:59.493Z,2.95
2023-02-17T18:57:26.529Z,3.58
2023-02-17T18:59:53.722Z,2.85
2023-02-17T19:02:22.012Z,3.05
2023-02-17T19:04:52.136Z,4.43
2023-02-17T19:07:19.359Z,2.70
2023-02-17T19:09:46.557Z,3.72
2023-02-17T19:12:13.908Z,3.50
2023-02-17T19:14:41.990Z,4.55
2023-02-17T19:17:10.468Z,4.40
2023-02-17T19:19:39.042Z,3.75
2023-02-17T19:22:08.720Z,3.97
2023-02-17T19:24:37.314Z,4.05
2023-02-17T19:27:04.755Z,4.82
2023-02-17T19:29:31.956Z,3.28
2023-02-17T19:32:00.523Z,3.55
2023-02-17T19:34:28.667Z,4.10
2023-02-17T19:36:56.049Z,4.03
2023-02-17T19:39:24.260Z,4.25
2023-02-17T19:41:51.215Z,4.22
2023-02-17T19:44:18.198Z,4.25
2023-02-17T19:46:45.336Z,3.83
2023-02-17T19:49:12.379Z,4.07
2023-02-17T19:51:39.766Z,5.10
2023-02-17T19:54:06.845Z,4.72
2023-02-17T19:56:36.328Z,4.13
2023-02-17T19:59:03.477Z,4.13
2023-02-17T20:01:33.063Z,3.30
2023-02-17T20:04:02.053Z,3.38
2023-02-17T20:06:33.111Z,3.08
2023-02-17T20:09:02.711Z,3.45
2023-02-17T20:11:31.986Z,2.85
2023-02-17T20:14:00.903Z,3.47
2023-02-17T20:16:28.907Z,2.58
2023-02-17T20:18:56.227Z,3.10
2023-02-17T20:21:26.102Z,3.38
2023-02-17T20:23:53.279Z,2.88
2023-02-17T20:26:23.917Z,4.05
2023-02-17T20:28:51.594Z,2.75
2023-02-17T20:31:19.505Z,3.38
2023-02-17T20:33:46.915Z,3.28
2023-02-17T20:36:14.303Z,3.95
2023-02-17T20:38:41.880Z,3.38
2023-02-17T20:41:10.284Z,4.40
2023-02-17T20:43:38.626Z,3.05
2023-02-17T20:46:06.247Z,2.92
2023-02-17T20:48:33.849Z,2.58
2023-02-17T20:51:01.074Z,3.42
2023-02-17T20:53:27.980Z,2.97
2023-02-17T20:55:55.175Z,3.30
2023-02-17T20:58:22.246Z,3.67
2023-02-17T21:00:49.593Z,4.15
2023-02-17T21:03:16.758Z,4.95
2023-02-17T21:05:43.856Z,4.07
2023-02-17T21:08:10.896Z,5.15
2023-02-17T21:10:39.968Z,2.65
2023-02-17T21:13:07.096Z,3.67
2023-02-17T21:15:34.569Z,4.07
2023-02-17T21:18:01.753Z,4.57
2023-02-17T21:20:28.837Z,3.63
2023-02-17T21:22:56.109Z,4.70
2023-02-17T21:25:23.317Z,4.47
2023-02-17T21:27:50.342Z,4.15
2023-02-17T21:30:17.426Z,8.15
2023-02-17T21:32:44.605Z,2.92
2023-02-17T21:35:12.111Z,4.00
2023-02-17T21:37:40.297Z,3.90
2023-02-17T21:40:08.274Z,5.45
2023-02-17T21:42:56.543Z,3.35
2023-02-17T21:45:24.520Z,4.80
2023-02-17T21:47:52.145Z,4.88
2023-02-17T21:50:19.781Z,2.70
2023-02-17T21:52:46.866Z,3.15
2023-02-17T21:55:14.071Z,4.30
2023-02-17T21:57:41.173Z,5.38
2023-02-17T22:00:08.967Z,4.43
2023-02-17T22:02:39.467Z,5.10
2023-02-17T22:05:07.792Z,5.90
2023-02-17T22:07:35.559Z,6.05
2023-02-17T22:10:04.196Z,5.43
2023-02-17T22:12:31.466Z,6.72
2023-02-17T22:14:58.556Z,7.00
2023-02-17T22:17:25.659Z,4.22
2023-02-17T22:19:52.770Z,7.43
2023-02-17T22:22:19.798Z,6.43
2023-02-17T22:24:46.915Z,5.60
2023-02-17T22:27:14.338Z,5.13
2023-02-17T22:29:41.355Z,5.78
2023-02-17T22:32:08.927Z,5.20
2023-02-17T22:34:35.999Z,5.90
2023-02-17T22:37:03.010Z,7.55
2023-02-17T22:39:30.129Z,6.90
2023-02-17T22:41:57.323Z,6.78
2023-02-17T22:44:24.404Z,6.93
2023-02-17T22:46:51.358Z,4.95
2023-02-17T22:49:18.463Z,5.38
2023-02-17T22:51:45.410Z,6.78
2023-02-17T22:54:12.467Z,8.90
2023-02-17T22:56:39.549Z,5.18
2023-02-17T22:59:06.865Z,9.25
2023-02-17T23:01:36.452Z,6.32
2023-02-17T23:04:05.752Z,8.10
2023-02-17T23:06:35.896Z,6.05
2023-02-17T23:09:04.186Z,5.22
2023-02-17T23:11:57.610Z,3.85
2023-02-17T23:14:32.184Z,6.32
2023-02-17T23:17:01.966Z,3.90
2023-02-17T23:19:30.233Z,8.18
2023-02-17T23:22:00.432Z,3.97
2023-02-17T23:24:27.614Z,5.18
2023-02-17T23:26:57.000Z,5.18
2023-02-17T23:29:24.482Z,5.28
2023-02-17T23:31:51.636Z,6.00
2023-02-17T23:34:18.804Z,5.25
2023-02-17T23:36:46.964Z,4.50
2023-02-17T23:39:15.580Z,7.22
2023-02-17T23:41:43.081Z,3.70
2023-02-17T23:44:11.994Z,3.95
2023-02-17T23:46:39.504Z,5.75
2023-02-17T23:49:06.693Z,5.53
2023-02-17T23:51:33.807Z,4.18
2023-02-17T23:54:00.944Z,4.00
2023-02-17T23:56:32.304Z,3.20
2023-02-17T23:58:59.755Z,3.08
